Goose Creek, SC

4:50 AM EDT on October 01, 2014 (GMT -0400)
Bedford Chase @ Crowfield Plantation | Change Station
CLOSE
Current Station
Personal Weather Station
Location: Goose Creek, SC
Elevation: 39 ft
Nearby Weather Stations

Elev 39 ft 33.02 °N, 80.06 °W | Updated 58 days ago

Clear
Clear
68 °F
Feels Like 68 °F
N
1
Wind Variable Wind from North
Gusts mph

Today
High -- | Low -- °F
--% Chance of Precip.
Yesterday
High -- | Low -- °F
Precip. -- in
7:14 AM 7:04 PM
Waxing Crescent, 45% visible
Pressure 29.89 in
Visibility 10.0 miles
Clouds Clear
Dew Point 63 °F
Humidity 81%
Rainfall 0.00 in
Snow Depth Not available.
UV 0.0 out of 12
Pollen 5.40 out of 12
Air Quality Not available.
Flu Activity Not available.
METAR KCHS 010756Z 34003KT 10SM CLR 18/17 A2989 RMK AO2 SLP122 T01830172

More Conditions Fewer Conditions

Pressure 29.89 in
Visibility 10.0 miles
Clouds Clear
Dew Point 63 °F
Humidity 81%
Rainfall 0.00 in
Snow Depth Not available.
UV 0.0 out of 12
Pollen 5.40 out of 12
Air Quality Not available.
Flu Activity Not available.
METAR KCHS 010756Z 34003KT 10SM CLR 18/17 A2989 RMK AO2 SLP122 T01830172

More Conditions Fewer Conditions

10-Day Weather Forecast

Almanac

Astronomy

Oct. 01, 2014 Rise Set
Actual Time 7:14 AM EDT 7:04 PM EDT
Civil Twilight 6:49 AM EDT 7:29 PM EDT
Nautical Twilight 6:21 AM EDT 7:58 PM EDT
Astronomical Twilight 5:52 AM EDT 8:26 PM EDT
Moon 2:00 PM EDT No Moon Set
Length of Visible Light 12h 39m
Length of Day
11h 50m
Tomorrow will be 2m 2s shorter.
Waxing Crescent, 45% of the Moon is Illuminated
Today
Waxing Crescent
Oct 1
First Quarter
Oct 8
Full
Oct 15
Last Quarter
Oct 23
New

Today's Extremes

State Highs State Lows

Community

WunderPhotos

Upload Photos

1,757,902 photos uploaded!

Nearby

Air Quality

  Air Quality AQ Index Pollutant
Yesterday Good
PM2.5

Snow Depth

Station Depth Elevation
No new snow has been reported.

Earthquake Activity

City Distance Mag. Time & Date
No recent earthquake activity has been reported nearby.
Minimum magnitude displayed is 2.5.

Coastal Water Temperatures

Place Temperature
No Stations Reporting

Nearby Weather Stations